Time;durP1;ratioP1;P1;durP2;ratioP2;P2;SDS_P1;SDS_P2;PMS_P1;PMS_P2;Temp;Humidity;BMP_temperature;BMP_pressure;BME280_temperature;BME280_humidity;BME280_pressure;Samples;Min_cycle;Max_cycle;Signal;HPM_P1;HPM_P2
2022/01/15 00:01:45;;;;;;;5.13;1.95;;;0.50;99.90;;;;;;4962116;28;20045;-96
2022/01/15 00:04:11;;;;;;;2.20;1.23;;;0.50;99.90;;;;;;4964730;28;20030;-96
2022/01/15 00:06:37;;;;;;;3.45;1.23;;;0.40;99.90;;;;;;4965759;28;20078;-96
2022/01/15 00:11:39;;;;;;;2.47;0.90;;;0.50;99.90;;;;;;5048855;23;20263;-92
2022/01/15 00:17:08;;;;;;;1.75;0.90;;;0.60;99.90;;;;;;4978296;28;20049;-96
2022/01/15 00:19:43;;;;;;;4.38;1.30;;;0.70;99.90;;;;;;4983229;28;20026;-96
2022/01/15 00:22:14;;;;;;;2.10;0.93;;;0.60;99.90;;;;;;4962029;28;20019;-96
2022/01/15 00:24:41;;;;;;;2.78;1.45;;;0.70;99.90;;;;;;4961994;28;20572;-96
2022/01/15 00:27:09;;;;;;;4.05;1.25;;;0.70;99.90;;;;;;4965183;28;20085;-96
2022/01/15 00:29:36;;;;;;;3.60;1.63;;;0.80;99.90;;;;;;5139323;23;20449;-95
2022/01/15 00:32:04;;;;;;;2.53;1.42;;;0.80;99.90;;;;;;4982575;28;20078;-95
2022/01/15 00:34:30;;;;;;;5.10;1.60;;;0.90;99.90;;;;;;4983538;28;20022;-96
2022/01/15 00:36:56;;;;;;;1.42;1.13;;;0.90;99.90;;;;;;4979715;28;20025;-94
2022/01/15 00:39:23;;;;;;;2.85;1.30;;;0.90;99.90;;;;;;4979491;28;20018;-89
2022/01/15 00:41:49;;;;;;;2.70;1.33;;;0.80;99.90;;;;;;4979098;28;20069;-96
2022/01/15 00:44:15;;;;;;;3.15;1.25;;;0.80;99.90;;;;;;4980197;28;20026;-93
2022/01/15 00:46:41;;;;;;;6.95;1.40;;;0.80;99.90;;;;;;4979377;28;20026;-96
2022/01/15 00:49:06;;;;;;;3.72;1.40;;;0.80;99.90;;;;;;4982512;28;20026;-91
2022/01/15 00:51:32;;;;;;;2.85;1.98;;;0.70;99.90;;;;;;4979869;28;20022;-92
2022/01/15 00:53:58;;;;;;;3.65;2.20;;;0.70;99.90;;;;;;4978852;28;20114;-90
2022/01/15 00:56:23;;;;;;;2.40;1.52;;;0.70;99.90;;;;;;4978746;28;20433;-93
2022/01/15 00:58:52;;;;;;;2.95;2.05;;;0.70;99.90;;;;;;4979249;28;20026;-95
2022/01/15 01:01:17;;;;;;;2.88;1.73;;;0.60;99.90;;;;;;4979843;28;20018;-96
2022/01/15 01:03:43;;;;;;;3.08;1.70;;;0.60;99.90;;;;;;4979864;28;20077;-95
2022/01/15 01:06:09;;;;;;;3.25;1.95;;;0.50;99.90;;;;;;4978696;28;20026;-85
2022/01/15 01:08:34;;;;;;;4.50;2.10;;;0.60;99.90;;;;;;4978722;28;20040;-86
2022/01/15 01:11:10;;;;;;;3.60;2.05;;;0.60;99.90;;;;;;4979573;28;20030;-90
2022/01/15 01:24:25;;;;;;;3.15;1.90;;;0.50;99.90;;;;;;4996050;28;20101;-96
2022/01/15 01:27:09;;;;;;;3.60;2.28;;;0.40;99.90;;;;;;4978563;28;20022;-96
2022/01/15 01:29:47;;;;;;;3.78;1.95;;;0.40;99.90;;;;;;4978289;28;20051;-92
2022/01/15 01:32:41;;;;;;;4.45;1.77;;;0.40;99.90;;;;;;4978243;28;20480;-93
2022/01/15 01:35:28;;;;;;;5.45;2.13;;;0.30;99.90;;;;;;4978232;28;20022;-92
2022/01/15 01:37:55;;;;;;;9.43;2.38;;;0.20;99.90;;;;;;4978141;28;20464;-92
2022/01/15 01:40:37;;;;;;;7.25;2.25;;;0.10;99.90;;;;;;4978218;28;20022;-89
2022/01/15 01:43:25;;;;;;;2.97;1.80;;;0.10;99.90;;;;;;4978074;28;20034;-93
2022/01/15 01:45:59;;;;;;;5.07;2.03;;;0.10;99.90;;;;;;4995098;28;20049;-94
2022/01/15 01:48:25;;;;;;;4.22;1.60;;;0.10;99.90;;;;;;4978051;28;20403;-94
2022/01/15 01:50:51;;;;;;;5.95;1.88;;;0.00;99.90;;;;;;4979244;28;20038;-93
2022/01/15 01:53:17;;;;;;;4.63;1.65;;;0.00;99.90;;;;;;4977939;28;20080;-92
2022/01/15 01:55:42;;;;;;;10.57;2.10;;;0.00;99.90;;;;;;4977895;28;20026;-93
2022/01/15 01:58:08;;;;;;;5.38;1.65;;;0.00;99.90;;;;;;4977769;28;20026;-93
2022/01/15 02:00:34;;;;;;;5.13;1.67;;;0.00;99.90;;;;;;4977831;28;20038;-94
2022/01/15 02:03:00;;;;;;;3.97;1.73;;;0.00;99.90;;;;;;4977863;28;20026;-93
2022/01/15 02:05:26;;;;;;;3.83;1.73;;;0.10;99.90;;;;;;4977758;28;20416;-93
2022/01/15 02:07:52;;;;;;;5.53;1.73;;;0.10;99.90;;;;;;4978038;28;20030;-92
2022/01/15 02:10:20;;;;;;;3.33;1.70;;;0.10;99.90;;;;;;4977762;28;20037;-93
2022/01/15 02:12:48;;;;;;;4.05;2.25;;;0.10;99.90;;;;;;4978071;28;20425;-93
2022/01/15 02:15:17;;;;;;;4.75;2.15;;;0.20;99.90;;;;;;4977884;28;20030;-93
2022/01/15 02:17:45;;;;;;;4.95;1.60;;;0.20;99.90;;;;;;4977810;28;20056;-92
2022/01/15 02:20:37;;;;;;;3.10;1.83;;;0.20;99.90;;;;;;4978539;28;20022;-94
2022/01/15 02:25:54;;;;;;;4.10;1.77;;;0.30;99.90;;;;;;4995200;28;20068;-92
2022/01/15 02:28:23;;;;;;;5.28;2.42;;;0.30;99.90;;;;;;4977387;28;20085;-86
2022/01/15 02:31:15;;;;;;;6.35;2.28;;;0.30;99.90;;;;;;4977580;28;20026;-93
2022/01/15 02:33:42;;;;;;;3.40;2.13;;;0.40;99.90;;;;;;4977897;28;20026;-92
2022/01/15 02:36:13;;;;;;;3.50;1.92;;;0.30;99.90;;;;;;4981715;28;20033;-93
2022/01/15 02:38:41;;;;;;;1.77;1.30;;;0.30;99.90;;;;;;4981492;28;20030;-93
2022/01/15 02:41:07;;;;;;;3.83;1.73;;;0.20;99.90;;;;;;4981677;28;20034;-93
2022/01/15 02:43:34;;;;;;;3.08;1.65;;;0.20;99.90;;;;;;4982008;28;20373;-93
2022/01/15 02:46:18;;;;;;;2.97;1.30;;;0.10;99.90;;;;;;4981422;28;20026;-92
2022/01/15 02:48:51;;;;;;;2.75;1.25;;;0.10;99.90;;;;;;4981209;28;20034;-94
2022/01/15 02:51:27;;;;;;;2.92;1.65;;;0.10;99.90;;;;;;4981297;28;20053;-92
2022/01/15 02:53:56;;;;;;;3.25;1.20;;;0.20;99.90;;;;;;4981211;28;20121;-94
2022/01/15 02:56:28;;;;;;;2.55;1.75;;;0.10;99.90;;;;;;4981496;28;20023;-94
2022/01/15 02:58:55;;;;;;;4.80;2.25;;;0.10;99.90;;;;;;4980960;28;20023;-93
2022/01/15 03:01:21;;;;;;;3.58;1.90;;;0.20;99.90;;;;;;4981021;28;20019;-93
2022/01/15 03:03:47;;;;;;;7.40;1.95;;;0.20;99.90;;;;;;4980843;28;20384;-94
2022/01/15 03:06:14;;;;;;;3.90;1.50;;;0.10;99.90;;;;;;4980987;28;20034;-93
2022/01/15 03:08:42;;;;;;;3.70;1.40;;;0.10;99.90;;;;;;4980759;28;20385;-92
2022/01/15 03:11:08;;;;;;;5.47;2.05;;;0.10;99.90;;;;;;4980813;28;20030;-93
2022/01/15 03:13:36;;;;;;;4.25;1.67;;;0.00;99.90;;;;;;4980640;28;20045;-96
2022/01/15 03:16:02;;;;;;;3.60;1.63;;;0.00;99.90;;;;;;4981097;28;20026;-94
2022/01/15 03:18:28;;;;;;;4.43;1.80;;;0.00;99.90;;;;;;4980820;28;20032;-93
2022/01/15 03:20:54;;;;;;;4.15;2.03;;;0.00;99.90;;;;;;4980745;28;20030;-92
2022/01/15 03:23:19;;;;;;;3.85;1.67;;;0.00;99.90;;;;;;4980596;28;20469;-94
2022/01/15 03:25:45;;;;;;;2.95;1.48;;;0.00;99.90;;;;;;4980692;28;20037;-93
2022/01/15 03:28:11;;;;;;;7.63;2.20;;;0.00;99.90;;;;;;4980380;28;20038;-92
2022/01/15 03:30:37;;;;;;;5.40;1.58;;;0.00;99.90;;;;;;4980878;28;20034;-93
2022/01/15 03:33:03;;;;;;;5.90;1.92;;;0.00;99.90;;;;;;4980840;28;20061;-94
2022/01/15 03:35:29;;;;;;;3.28;1.40;;;0.10;99.90;;;;;;4980558;28;20033;-93
2022/01/15 03:37:55;;;;;;;5.07;1.60;;;0.10;99.90;;;;;;4980600;28;20113;-93
2022/01/15 03:40:20;;;;;;;6.25;1.40;;;0.20;99.90;;;;;;4981641;28;20049;-94
2022/01/15 03:42:46;;;;;;;3.08;1.80;;;0.30;99.90;;;;;;4980179;28;20026;-93
2022/01/15 03:45:14;;;;;;;4.15;1.17;;;0.40;99.90;;;;;;4979956;28;20034;-86
2022/01/15 03:47:41;;;;;;;3.55;1.63;;;0.50;99.90;;;;;;4980307;28;20029;-86
2022/01/15 03:50:08;;;;;;;3.22;1.25;;;0.60;99.90;;;;;;4977537;28;20035;-96
2022/01/15 03:52:38;;;;;;;4.43;1.30;;;0.70;99.90;;;;;;4992450;28;20120;-96
2022/01/15 03:55:06;;;;;;;3.70;1.40;;;0.60;99.90;;;;;;5151395;23;20074;-95
2022/01/15 03:57:41;;;;;;;5.63;1.70;;;0.60;99.90;;;;;;4963665;29;20088;-96
2022/01/15 04:00:10;;;;;;;3.25;1.55;;;0.70;99.90;;;;;;4958940;29;20023;-89
2022/01/15 04:02:36;;;;;;;2.30;1.45;;;0.60;99.90;;;;;;4938382;29;20044;-93
2022/01/15 04:05:02;;;;;;;3.03;1.90;;;0.70;99.90;;;;;;4937424;29;20039;-88
2022/01/15 04:07:27;;;;;;;2.75;1.75;;;0.70;99.90;;;;;;4946954;29;20028;-94
2022/01/15 04:09:53;;;;;;;2.20;1.33;;;0.60;99.90;;;;;;4955491;29;20406;-91
2022/01/15 04:12:22;;;;;;;1.85;1.42;;;0.60;99.90;;;;;;4952011;29;20032;-94
2022/01/15 04:14:47;;;;;;;3.35;1.45;;;0.70;99.90;;;;;;4958009;29;20122;-92
2022/01/15 04:17:13;;;;;;;3.40;1.92;;;0.60;99.90;;;;;;4950163;29;20110;-90
2022/01/15 04:19:40;;;;;;;2.47;1.50;;;0.60;99.90;;;;;;4961052;29;20019;-89
2022/01/15 04:22:07;;;;;;;2.08;1.58;;;0.60;99.90;;;;;;4950364;29;20019;-88
2022/01/15 04:24:32;;;;;;;5.50;1.65;;;0.60;99.90;;;;;;4956883;29;20093;-87
2022/01/15 04:26:58;;;;;;;4.57;1.42;;;0.60;99.90;;;;;;4947856;29;20019;-87
2022/01/15 04:29:24;;;;;;;3.05;1.42;;;0.50;99.90;;;;;;4954835;28;20023;-87
2022/01/15 04:31:51;;;;;;;3.78;1.70;;;0.50;99.90;;;;;;4956771;29;20078;-87
2022/01/15 04:34:30;;;;;;;6.28;2.00;;;0.50;99.90;;;;;;4951287;29;20024;-89
2022/01/15 04:37:03;;;;;;;4.38;1.40;;;0.50;99.90;;;;;;4957275;29;20406;-89
2022/01/15 04:39:29;;;;;;;3.13;1.70;;;0.50;99.90;;;;;;4951956;29;20031;-89
2022/01/15 04:41:54;;;;;;;3.92;1.40;;;0.50;99.90;;;;;;4955105;29;20062;-90
2022/01/15 04:44:20;;;;;;;5.05;1.77;;;0.40;99.90;;;;;;4951365;29;20035;-90
2022/01/15 04:46:46;;;;;;;4.63;1.42;;;0.40;99.90;;;;;;4956024;29;20023;-90
2022/01/15 04:49:12;;;;;;;5.40;1.30;;;0.30;99.90;;;;;;4950178;29;20032;-88
2022/01/15 04:51:38;;;;;;;6.22;1.77;;;0.30;99.90;;;;;;4956086;29;20026;-89
2022/01/15 04:54:03;;;;;;;2.70;1.40;;;0.30;99.90;;;;;;4948780;29;20067;-89
2022/01/15 04:56:29;;;;;;;3.50;1.70;;;0.30;99.90;;;;;;4956063;28;20034;-90
2022/01/15 04:58:55;;;;;;;5.63;1.00;;;0.20;99.90;;;;;;4956444;29;20054;-89
2022/01/15 05:01:21;;;;;;;5.18;1.33;;;0.20;99.90;;;;;;4951471;29;20061;-90
2022/01/15 05:03:47;;;;;;;1.55;1.25;;;0.20;99.90;;;;;;4955803;29;20059;-89
2022/01/15 05:06:12;;;;;;;2.92;1.60;;;0.30;99.90;;;;;;4950293;29;20034;-90
2022/01/15 05:08:40;;;;;;;5.35;1.52;;;0.30;99.90;;;;;;4955904;29;20031;-90
2022/01/15 05:11:27;;;;;;;5.88;2.22;;;0.30;99.90;;;;;;4949229;29;20039;-90
2022/01/15 05:13:53;;;;;;;9.38;1.90;;;0.40;99.90;;;;;;4956451;29;20031;-89
2022/01/15 05:16:19;;;;;;;5.13;2.40;;;0.40;99.90;;;;;;4956060;29;20031;-88
2022/01/15 05:18:44;;;;;;;7.35;2.00;;;0.40;99.90;;;;;;4953063;29;20486;-90
2022/01/15 05:21:10;;;;;;;2.78;1.50;;;0.50;99.90;;;;;;4948658;29;20023;-90
2022/01/15 05:23:36;;;;;;;2.67;1.67;;;0.40;99.90;;;;;;4954640;29;20042;-90
2022/01/15 05:26:01;;;;;;;4.18;1.75;;;0.50;99.90;;;;;;4947064;29;20035;-90
2022/01/15 15:28:18;;;;;;;5.10;2.67;;;0.40;99.90;;;;;;5093760;27;20386;-93
2022/01/15 15:30:44;;;;;;;3.40;2.13;;;0.40;99.90;;;;;;5059300;28;20028;-94
2022/01/15 15:33:10;;;;;;;4.43;2.60;;;0.50;99.90;;;;;;5078799;28;20024;-93
2022/01/15 15:35:35;;;;;;;4.70;2.97;;;0.50;99.90;;;;;;5090554;28;20373;-92
2022/01/15 15:38:01;;;;;;;4.65;2.90;;;0.60;99.90;;;;;;5079261;28;20139;-93
2022/01/15 15:40:27;;;;;;;5.40;3.33;;;0.60;99.90;;;;;;5070376;28;20039;-92
2022/01/15 15:42:53;;;;;;;6.40;3.33;;;0.60;99.90;;;;;;5070374;28;20469;-90
2022/01/15 15:45:18;;;;;;;7.72;3.78;;;0.60;99.90;;;;;;5070173;28;20055;-91
2022/01/15 15:47:44;;;;;;;7.85;3.65;;;0.60;99.90;;;;;;5070061;28;20597;-92
2022/01/15 15:50:11;;;;;;;8.18;3.70;;;0.70;99.90;;;;;;5069601;28;20051;-95
2022/01/15 15:52:37;;;;;;;6.90;4.03;;;0.60;99.90;;;;;;5071481;28;20027;-92
2022/01/15 15:55:03;;;;;;;7.03;3.65;;;0.70;99.90;;;;;;5069526;28;20025;-93
2022/01/15 15:57:30;;;;;;;5.65;3.40;;;0.70;99.90;;;;;;5057017;28;20031;-92
2022/01/15 15:59:55;;;;;;;6.00;3.03;;;0.70;99.90;;;;;;5069401;28;20039;-93
2022/01/15 16:02:21;;;;;;;5.10;3.22;;;0.70;99.90;;;;;;5059110;28;20108;-92
2022/01/15 16:04:47;;;;;;;5.72;3.53;;;0.70;99.90;;;;;;5049668;28;20097;-92
2022/01/15 16:07:13;;;;;;;7.22;3.28;;;0.80;99.90;;;;;;5053223;28;20017;-92
2022/01/15 16:09:39;;;;;;;8.98;4.07;;;0.80;99.90;;;;;;5065442;28;20051;-93
2022/01/15 16:12:06;;;;;;;10.38;4.38;;;0.80;99.90;;;;;;5089616;28;20028;-91
2022/01/15 16:14:32;;;;;;;16.95;7.38;;;0.80;99.90;;;;;;5090295;28;20020;-92
2022/01/15 16:17:04;;;;;;;15.45;5.72;;;0.80;99.90;;;;;;5089863;28;20509;-93
2022/01/15 16:19:30;;;;;;;27.83;10.70;;;0.80;99.90;;;;;;5089900;28;20051;-90
2022/01/15 16:21:56;;;;;;;28.67;12.43;;;0.90;99.90;;;;;;5090009;28;20050;-93
2022/01/15 16:24:22;;;;;;;37.05;18.48;;;0.90;99.90;;;;;;5089550;28;20111;-93
2022/01/15 16:26:47;;;;;;;6.88;4.53;;;0.90;99.90;;;;;;5080092;28;20101;-93
2022/01/15 16:29:13;;;;;;;8.68;4.57;;;0.90;99.90;;;;;;5068975;28;20108;-93
2022/01/15 16:31:39;;;;;;;10.95;5.70;;;0.90;99.90;;;;;;5068932;28;20560;-91
2022/01/15 16:34:07;;;;;;;9.65;5.03;;;0.90;99.90;;;;;;5069182;28;20024;-93
2022/01/15 16:36:34;;;;;;;7.53;5.00;;;1.00;99.90;;;;;;5068828;28;20387;-92
2022/01/15 16:38:59;;;;;;;10.90;6.22;;;1.00;99.90;;;;;;5059653;28;20054;-93
2022/01/15 16:41:25;;;;;;;9.85;5.80;;;1.00;99.90;;;;;;5055709;28;20029;-93
2022/01/15 16:43:51;;;;;;;6.40;4.20;;;1.00;99.90;;;;;;5056011;28;20036;-92
2022/01/15 16:46:17;;;;;;;8.88;4.75;;;1.00;99.90;;;;;;5055757;28;20028;-92
2022/01/15 16:48:42;;;;;;;7.38;4.32;;;1.00;99.90;;;;;;5056004;28;20472;-92
2022/01/15 16:51:08;;;;;;;8.75;5.07;;;1.00;99.90;;;;;;5055543;28;20108;-92
2022/01/15 16:53:34;;;;;;;8.82;5.90;;;1.10;99.90;;;;;;5055449;28;20049;-92
2022/01/15 16:56:00;;;;;;;7.57;4.07;;;1.10;99.90;;;;;;5055397;28;20031;-90
2022/01/15 16:58:26;;;;;;;6.85;3.83;;;1.10;99.90;;;;;;5055261;28;20055;-91
2022/01/15 17:00:52;;;;;;;4.78;3.05;;;1.10;99.90;;;;;;5055219;28;20021;-92
2022/01/15 17:03:18;;;;;;;4.82;2.53;;;1.10;99.90;;;;;;5055437;28;20124;-91
2022/01/15 17:05:43;;;;;;;5.18;3.15;;;1.20;99.90;;;;;;5055568;28;20025;-91
2022/01/15 17:08:10;;;;;;;14.18;6.20;;;1.20;99.90;;;;;;5055306;28;20079;-93
2022/01/15 17:10:36;;;;;;;7.85;3.53;;;1.20;99.90;;;;;;5055985;28;20028;-92
2022/01/15 17:13:02;;;;;;;6.65;2.75;;;1.20;99.90;;;;;;5055542;28;20018;-92
2022/01/15 17:15:30;;;;;;;4.03;2.40;;;1.30;99.90;;;;;;5055444;28;20077;-94
2022/01/15 17:17:55;;;;;;;4.25;2.40;;;1.30;99.90;;;;;;5055308;28;20028;-92
2022/01/15 17:20:22;;;;;;;3.45;2.35;;;1.30;99.90;;;;;;5055290;28;20031;-91
2022/01/15 17:22:47;;;;;;;3.63;2.28;;;1.30;99.90;;;;;;5055156;28;20036;-92
2022/01/15 17:25:14;;;;;;;3.33;2.25;;;1.40;99.90;;;;;;5055275;28;20021;-90
2022/01/15 17:27:41;;;;;;;5.55;2.72;;;1.40;99.90;;;;;;5054762;28;20454;-91
2022/01/15 17:30:08;;;;;;;3.90;2.47;;;1.40;99.90;;;;;;5055383;28;20459;-90
2022/01/15 17:32:33;;;;;;;5.45;3.83;;;1.40;99.90;;;;;;5054928;28;20025;-91
2022/01/15 17:34:59;;;;;;;10.75;7.18;;;1.40;99.90;;;;;;5055092;28;20024;-90
2022/01/15 17:37:26;;;;;;;9.50;6.18;;;1.40;99.90;;;;;;5055183;28;20021;-91
2022/01/15 17:39:52;;;;;;;6.88;4.13;;;1.40;99.90;;;;;;5054774;28;20060;-89
2022/01/15 17:42:18;;;;;;;6.82;3.40;;;1.30;99.90;;;;;;5054439;28;20032;-90
2022/01/15 17:44:46;;;;;;;4.57;2.40;;;1.30;99.90;;;;;;5054731;28;20175;-91
2022/01/15 17:47:13;;;;;;;4.28;2.58;;;1.30;99.90;;;;;;5054370;28;20079;-90
2022/01/15 17:49:39;;;;;;;3.88;2.60;;;1.30;99.90;;;;;;5053563;28;20032;-90
2022/01/15 17:52:05;;;;;;;6.82;2.80;;;1.40;99.90;;;;;;5054411;28;20033;-90
2022/01/15 17:54:31;;;;;;;6.22;3.03;;;1.40;99.90;;;;;;5054657;28;20072;-90
2022/01/15 17:56:57;;;;;;;5.82;3.70;;;1.40;99.90;;;;;;5054433;28;20518;-90
2022/01/15 17:59:23;;;;;;;6.18;3.85;;;1.40;99.90;;;;;;5054709;28;20029;-89
2022/01/15 18:01:49;;;;;;;5.03;3.60;;;1.50;99.90;;;;;;5054397;28;20021;-91
2022/01/15 18:04:16;;;;;;;4.90;2.60;;;1.50;99.90;;;;;;5054164;28;20125;-89
2022/01/15 18:06:43;;;;;;;3.45;2.22;;;1.50;99.90;;;;;;5053926;28;20083;-90
2022/01/15 18:09:12;;;;;;;7.15;2.63;;;1.50;99.90;;;;;;5054054;28;20021;-93
2022/01/15 18:11:37;;;;;;;7.30;2.50;;;1.50;99.90;;;;;;5053932;28;20029;-90
2022/01/15 18:14:08;;;;;;;4.82;2.40;;;1.50;99.90;;;;;;5054145;28;20082;-89
2022/01/15 18:16:34;;;;;;;;;;;1.50;99.90;;;;;;5054728;28;20055;-94
2022/01/15 18:19:00;;;;;;;6.20;2.55;;;1.50;99.90;;;;;;5053906;28;19905;-89
2022/01/15 18:21:26;;;;;;;4.60;2.13;;;1.50;99.90;;;;;;5053874;28;20091;-91
2022/01/15 18:23:51;;;;;;;4.38;2.40;;;1.50;99.90;;;;;;5053701;28;20033;-89
2022/01/15 18:26:18;;;;;;;3.75;2.00;;;1.50;99.90;;;;;;5053593;28;20131;-91
2022/01/15 18:28:45;;;;;;;4.88;2.50;;;1.60;99.90;;;;;;5053670;28;20025;-89
2022/01/15 18:31:11;;;;;;;4.18;2.58;;;1.60;99.90;;;;;;5053573;28;20029;-91
2022/01/15 18:33:37;;;;;;;5.07;2.90;;;1.60;99.90;;;;;;5053846;28;20032;-91
2022/01/15 18:36:04;;;;;;;6.07;3.00;;;1.60;99.90;;;;;;5053879;28;20028;-89
2022/01/15 18:38:29;;;;;;;5.55;2.95;;;1.60;99.90;;;;;;5036656;28;20056;-90
2022/01/15 18:40:55;;;;;;;3.90;2.17;;;1.60;99.90;;;;;;5036921;28;20037;-89
2022/01/15 18:43:21;;;;;;;4.88;2.50;;;1.60;99.90;;;;;;5037171;28;20033;-87
2022/01/15 18:45:46;;;;;;;4.93;2.75;;;1.60;99.90;;;;;;5053145;28;20071;-90
2022/01/15 18:48:12;;;;;;;6.45;2.55;;;1.60;99.90;;;;;;5053590;28;20364;-90
2022/01/15 18:50:38;;;;;;;4.28;2.45;;;1.60;99.90;;;;;;5049968;28;20074;-89
2022/01/15 18:53:04;;;;;;;7.13;2.33;;;1.60;99.90;;;;;;5036744;28;20783;-90
2022/01/15 18:55:29;;;;;;;5.38;2.67;;;1.60;99.90;;;;;;5025580;28;20030;-90
2022/01/15 18:57:55;;;;;;;3.95;2.20;;;1.70;99.90;;;;;;5017214;28;20029;-89
2022/01/15 19:00:22;;;;;;;5.30;3.25;;;1.70;99.90;;;;;;5027937;28;20773;-92
2022/01/15 19:02:49;;;;;;;5.70;2.90;;;1.70;99.90;;;;;;5046540;28;20025;-90
2022/01/15 19:05:15;;;;;;;4.22;2.25;;;1.70;99.90;;;;;;5034907;28;20441;-90
2022/01/15 19:07:42;;;;;;;5.15;2.25;;;1.70;99.90;;;;;;5034699;28;20043;-90
2022/01/15 19:10:09;;;;;;;3.85;2.38;;;1.70;99.90;;;;;;5036337;28;20094;-91
2022/01/15 19:12:36;;;;;;;4.97;2.10;;;1.70;99.90;;;;;;5034949;28;20031;-91
2022/01/15 19:15:06;;;;;;;5.40;2.35;;;1.70;99.90;;;;;;5036911;28;20021;-93
2022/01/15 19:17:31;;;;;;;5.80;2.10;;;1.60;99.90;;;;;;5031676;28;20032;-90
2022/01/15 19:19:57;;;;;;;6.03;2.53;;;1.60;99.90;;;;;;5017247;28;20033;-90
2022/01/15 19:22:23;;;;;;;2.33;1.75;;;1.60;99.90;;;;;;5036559;28;20051;-90
2022/01/15 19:24:49;;;;;;;4.85;2.33;;;1.60;99.90;;;;;;5036615;28;20444;-91
2022/01/15 19:27:15;;;;;;;6.28;2.67;;;1.70;99.90;;;;;;5044355;28;20546;-90
2022/01/15 19:29:41;;;;;;;2.67;2.20;;;1.60;99.90;;;;;;5054222;28;20022;-90
2022/01/15 19:32:08;;;;;;;6.60;2.13;;;1.60;99.90;;;;;;5053173;28;20021;-90
2022/01/15 19:34:34;;;;;;;3.55;2.10;;;1.60;99.90;;;;;;5051668;28;20435;-91
2022/01/15 19:37:00;;;;;;;5.10;2.17;;;1.60;99.90;;;;;;5042863;28;20033;-90
2022/01/15 19:39:26;;;;;;;4.53;2.30;;;1.60;99.90;;;;;;5033278;28;20025;-90
2022/01/15 19:41:51;;;;;;;3.85;1.85;;;1.60;99.90;;;;;;5032937;28;20032;-92
2022/01/15 19:44:17;;;;;;;5.20;2.28;;;1.60;99.90;;;;;;5032971;28;20115;-90
2022/01/15 19:46:43;;;;;;;3.15;2.05;;;1.60;99.90;;;;;;5033194;28;20022;-89
2022/01/15 19:49:09;;;;;;;4.00;2.30;;;1.60;99.90;;;;;;5032914;28;20423;-91
2022/01/15 19:51:35;;;;;;;4.03;2.35;;;1.60;99.90;;;;;;5033045;28;20435;-90
2022/01/15 19:54:01;;;;;;;5.57;2.63;;;1.60;99.90;;;;;;5032833;28;20452;-90
2022/01/15 19:56:26;;;;;;;4.97;2.63;;;1.60;99.90;;;;;;5032918;28;20021;-90
2022/01/15 19:58:52;;;;;;;5.50;2.13;;;1.60;99.90;;;;;;5032971;28;20037;-90
2022/01/15 20:01:18;;;;;;;3.50;2.20;;;1.60;99.90;;;;;;5034238;28;20029;-88
2022/01/15 20:03:44;;;;;;;4.07;2.55;;;1.50;99.90;;;;;;5033831;28;20029;-90
2022/01/15 20:06:21;;;;;;;4.50;2.30;;;1.50;99.90;;;;;;5033061;28;20037;-91
2022/01/15 20:08:46;;;;;;;3.53;2.05;;;1.50;99.90;;;;;;5032919;28;20105;-90
2022/01/15 20:11:12;;;;;;;4.18;2.40;;;1.50;99.90;;;;;;5032745;28;20445;-90
2022/01/15 20:13:38;;;;;;;4.78;2.00;;;1.50;99.90;;;;;;5034653;28;20029;-92
2022/01/15 20:16:04;;;;;;;4.15;2.20;;;1.50;99.90;;;;;;5036701;28;20033;-89
2022/01/15 20:18:29;;;;;;;4.20;1.88;;;1.50;99.90;;;;;;5036783;28;20022;-89
2022/01/15 20:20:57;;;;;;;3.70;2.30;;;1.50;99.90;;;;;;5037225;28;20377;-90
2022/01/15 20:23:24;;;;;;;3.13;2.13;;;1.50;99.90;;;;;;5036475;28;20026;-92
2022/01/15 20:25:51;;;;;;;4.03;2.10;;;1.50;99.90;;;;;;5036609;28;20025;-90
2022/01/15 20:28:18;;;;;;;4.25;2.42;;;1.50;99.90;;;;;;5036169;28;20030;-90
2022/01/15 20:30:44;;;;;;;4.45;1.75;;;1.40;99.90;;;;;;5036525;28;20095;-88
2022/01/15 20:33:10;;;;;;;4.32;2.10;;;1.50;99.90;;;;;;5050386;28;20028;-90
2022/01/15 20:35:36;;;;;;;6.40;2.40;;;1.50;99.90;;;;;;5050298;28;20479;-90
2022/01/15 20:38:02;;;;;;;5.13;1.70;;;1.50;99.90;;;;;;5036227;28;20029;-90
2022/01/15 20:40:28;;;;;;;4.05;2.15;;;1.50;99.90;;;;;;5037549;28;20037;-90
2022/01/15 20:42:55;;;;;;;3.85;1.90;;;1.50;99.90;;;;;;5056275;28;20040;-90
2022/01/15 20:45:23;;;;;;;4.00;1.58;;;1.50;99.90;;;;;;5056009;28;20025;-90
2022/01/15 20:47:49;;;;;;;3.58;1.90;;;1.50;99.90;;;;;;5055878;28;20485;-90
2022/01/15 20:50:17;;;;;;;2.50;1.70;;;1.50;99.90;;;;;;5056133;28;20056;-92
2022/01/15 20:52:43;;;;;;;3.33;1.90;;;1.50;99.90;;;;;;5055442;28;20025;-90
2022/01/15 20:55:10;;;;;;;2.78;1.70;;;1.50;99.90;;;;;;5055674;28;20037;-90
2022/01/15 20:57:37;;;;;;;4.45;2.10;;;1.50;99.90;;;;;;5055800;28;20060;-90
2022/01/15 21:00:08;;;;;;;5.40;2.08;;;1.50;99.90;;;;;;5055583;28;20529;-90
2022/01/15 21:02:34;;;;;;;3.60;2.00;;;1.50;99.90;;;;;;5056451;28;20378;-89
2022/01/15 21:04:59;;;;;;;4.22;2.35;;;1.50;99.90;;;;;;5055817;28;20025;-90
2022/01/15 21:07:25;;;;;;;4.15;2.30;;;1.50;99.90;;;;;;5048424;28;20022;-89
2022/01/15 21:09:52;;;;;;;4.65;2.13;;;1.60;99.90;;;;;;5035505;28;20079;-89
2022/01/15 21:12:18;;;;;;;3.65;1.90;;;1.60;99.90;;;;;;5035691;28;20025;-89
2022/01/15 21:14:43;;;;;;;3.03;2.08;;;1.60;99.90;;;;;;5035462;28;20353;-89
2022/01/15 21:17:09;;;;;;;4.10;2.15;;;1.50;99.90;;;;;;5035382;28;20048;-89
2022/01/15 21:19:35;;;;;;;4.32;1.80;;;1.50;99.90;;;;;;5036493;28;20084;-89
2022/01/15 21:22:01;;;;;;;2.95;1.95;;;1.50;99.90;;;;;;5040818;28;20064;-89
2022/01/15 21:24:26;;;;;;;3.05;2.10;;;1.50;99.90;;;;;;5055301;28;20033;-89
2022/01/15 21:26:52;;;;;;;3.45;1.95;;;1.40;99.90;;;;;;5055177;28;20446;-89
2022/01/15 21:29:18;;;;;;;3.67;2.10;;;1.40;99.90;;;;;;5054891;28;20025;-90
2022/01/15 21:31:44;;;;;;;2.97;2.17;;;1.30;99.90;;;;;;5055041;28;20032;-89
2022/01/15 21:34:10;;;;;;;2.95;2.00;;;1.30;99.90;;;;;;5055053;28;20017;-89
2022/01/15 21:36:37;;;;;;;3.88;1.98;;;1.30;99.90;;;;;;5050409;28;20060;-89
2022/01/15 21:39:05;;;;;;;2.60;2.10;;;1.40;99.90;;;;;;5035180;28;20368;-90
2022/01/15 21:41:32;;;;;;;4.88;2.15;;;1.40;99.90;;;;;;5035019;28;20029;-92
2022/01/15 21:43:58;;;;;;;3.45;1.80;;;1.40;99.90;;;;;;5034906;28;20479;-89
2022/01/15 21:46:24;;;;;;;4.82;2.05;;;1.40;99.90;;;;;;5035172;28;20043;-88
2022/01/15 21:48:50;;;;;;;4.07;2.22;;;1.40;99.90;;;;;;5034928;28;20116;-88
2022/01/15 21:51:15;;;;;;;4.97;2.28;;;1.40;99.90;;;;;;5038527;28;20036;-89
2022/01/15 21:53:41;;;;;;;4.07;2.08;;;1.40;99.90;;;;;;5055053;28;20020;-89
2022/01/15 21:56:07;;;;;;;2.85;2.10;;;1.40;99.90;;;;;;5054690;28;20025;-89
2022/01/15 21:58:33;;;;;;;5.90;1.80;;;1.40;99.90;;;;;;5054551;28;20060;-89
2022/01/15 22:00:59;;;;;;;2.72;1.73;;;1.40;99.90;;;;;;5054562;28;20017;-89
2022/01/15 22:03:25;;;;;;;3.08;2.03;;;1.40;99.90;;;;;;5054462;28;20533;-90
2022/01/15 22:05:52;;;;;;;6.47;2.30;;;1.40;99.90;;;;;;5051524;28;20052;-89
2022/01/15 22:08:19;;;;;;;4.70;2.20;;;1.40;99.90;;;;;;5034631;28;20033;-89
2022/01/15 22:10:46;;;;;;;4.60;2.05;;;1.40;99.90;;;;;;5034638;28;20053;-89
2022/01/15 22:13:12;;;;;;;2.97;2.08;;;1.40;99.90;;;;;;5034480;28;20025;-89
2022/01/15 22:15:38;;;;;;;2.53;1.95;;;1.40;99.90;;;;;;5035350;28;20022;-89
2022/01/15 22:18:04;;;;;;;2.38;1.85;;;1.40;99.90;;;;;;5034194;28;20052;-89
2022/01/15 22:20:33;;;;;;;3.45;1.98;;;1.50;99.90;;;;;;5034201;28;20021;-89
2022/01/15 22:22:59;;;;;;;3.30;1.83;;;1.50;99.90;;;;;;5035329;28;20029;-89
2022/01/15 22:25:25;;;;;;;2.45;1.75;;;1.50;99.90;;;;;;5034163;28;20380;-89
2022/01/15 22:27:50;;;;;;;4.28;2.17;;;1.50;99.90;;;;;;5033891;28;20499;-89
2022/01/15 22:30:17;;;;;;;3.80;1.80;;;1.50;99.90;;;;;;5034110;28;20022;-89
2022/01/15 22:32:42;;;;;;;4.32;2.08;;;1.50;99.90;;;;;;5034213;28;20040;-89
2022/01/15 22:35:09;;;;;;;3.08;1.90;;;1.50;99.90;;;;;;5035187;28;20116;-89
2022/01/15 22:37:35;;;;;;;2.50;1.67;;;1.40;99.90;;;;;;5053524;28;20083;-89
2022/01/15 22:40:02;;;;;;;3.05;1.88;;;1.40;99.90;;;;;;5053846;28;20121;-89
2022/01/15 22:42:28;;;;;;;3.28;1.70;;;1.40;99.90;;;;;;5053905;28;20025;-89
2022/01/15 22:44:57;;;;;;;2.67;2.10;;;1.40;99.90;;;;;;5053600;28;20029;-89
2022/01/15 22:47:23;;;;;;;2.67;1.67;;;1.40;99.90;;;;;;5054820;28;20394;-89
2022/01/15 22:49:49;;;;;;;2.45;1.63;;;1.40;99.90;;;;;;5052437;28;20021;-89
2022/01/15 22:52:15;;;;;;;3.15;1.80;;;1.40;99.90;;;;;;5035021;28;20064;-89
2022/01/15 22:54:40;;;;;;;2.65;1.77;;;1.40;99.90;;;;;;5033701;28;20029;-89
2022/01/15 22:57:06;;;;;;;2.85;1.60;;;1.40;99.90;;;;;;5033783;28;20131;-90
2022/01/15 22:59:32;;;;;;;3.13;1.88;;;1.40;99.90;;;;;;5033642;28;20036;-89
2022/01/15 23:01:57;;;;;;;1.48;1.33;;;1.40;99.90;;;;;;5034787;28;20053;-90
2022/01/15 23:04:23;;;;;;;3.85;1.58;;;1.30;99.90;;;;;;5033474;28;20026;-89
2022/01/15 23:06:49;;;;;;;2.65;1.60;;;1.30;99.90;;;;;;5052691;28;20128;-88
2022/01/15 23:09:15;;;;;;;1.55;1.42;;;1.30;99.90;;;;;;5053402;28;20025;-89
2022/01/15 23:11:46;;;;;;;3.25;1.60;;;1.30;99.90;;;;;;5053442;28;20032;-89
2022/01/15 23:14:18;;;;;;;2.50;1.60;;;1.30;99.90;;;;;;5053628;28;20025;-89
2022/01/15 23:17:00;;;;;;;2.65;1.48;;;1.30;99.90;;;;;;5053389;28;20059;-89